createdAt,value
2023-03-13T00:01:50.551Z,100327.34
2023-03-13T00:04:20.421Z,100318.48
2023-03-13T00:06:50.222Z,100310.24
2023-03-13T00:09:20.105Z,100308.11
2023-03-13T00:11:50.210Z,100288.22
2023-03-13T00:14:19.980Z,100288.22
2023-03-13T00:16:49.837Z,100281.09
2023-03-13T00:19:19.599Z,100275.58
2023-03-13T00:21:49.391Z,100270.94
2023-03-13T00:24:19.042Z,100281.42
2023-03-13T00:26:48.840Z,100268.98
2023-03-13T00:29:19.236Z,100264.20
2023-03-13T00:31:49.170Z,100260.50
2023-03-13T00:34:19.358Z,100245.21
2023-03-13T00:36:49.131Z,100245.21
2023-03-13T00:39:18.759Z,100245.49
2023-03-13T00:41:48.706Z,100232.89
2023-03-13T00:44:18.458Z,100240.30
2023-03-13T00:46:49.908Z,100227.46
2023-03-13T00:49:19.991Z,100223.51
2023-03-13T00:51:49.853Z,100221.22
2023-03-13T00:54:19.838Z,100211.58
2023-03-13T00:56:49.826Z,100207.15
2023-03-13T00:59:19.953Z,100198.36
2023-03-13T01:01:49.925Z,100185.97
2023-03-13T01:04:19.724Z,100180.77
2023-03-13T01:06:49.476Z,100180.77
2023-03-13T01:09:19.868Z,100173.73
2023-03-13T01:11:49.773Z,100163.70
2023-03-13T01:14:21.144Z,100151.69
2023-03-13T01:16:50.932Z,100146.59
2023-03-13T01:19:20.713Z,100128.31
2023-03-13T01:21:50.473Z,100128.31
2023-03-13T01:24:20.477Z,100133.65
2023-03-13T01:26:50.602Z,100117.00
2023-03-13T01:29:20.671Z,100114.84
2023-03-13T01:31:50.170Z,100117.19
2023-03-13T01:34:20.284Z,100096.21
2023-03-13T01:36:51.703Z,100096.32
2023-03-13T01:39:21.759Z,100106.18
2023-03-13T01:41:51.582Z,100091.37
2023-03-13T01:44:27.382Z,100088.42
2023-03-13T01:46:57.958Z,100082.41
2023-03-13T01:49:34.558Z,100072.88
2023-03-13T01:52:09.138Z,100069.36
2023-03-13T01:54:52.841Z,100050.53
2023-03-13T01:57:32.294Z,100048.25
2023-03-13T02:00:05.239Z,100040.75
2023-03-13T02:02:39.012Z,100031.94
2023-03-13T02:05:09.081Z,100031.94
2023-03-13T02:07:41.894Z,100022.06
2023-03-13T02:10:14.082Z,100019.56
2023-03-13T02:12:44.499Z,100021.06
2023-03-13T02:15:22.876Z,100013.86
2023-03-13T02:17:55.031Z,99995.00
2023-03-13T02:20:26.358Z,99999.03
2023-03-13T02:23:24.808Z,99994.30
2023-03-13T02:25:55.396Z,99988.28
2023-03-13T02:28:29.670Z,99960.84
2023-03-13T02:30:59.816Z,99956.75
2023-03-13T02:33:32.277Z,99945.70
2023-03-13T02:36:03.545Z,99945.70
2023-03-13T02:38:36.347Z,99948.57
2023-03-13T02:41:06.950Z,99925.67
2023-03-13T02:43:39.295Z,99924.11
2023-03-13T02:46:17.659Z,99911.83
2023-03-13T02:48:54.939Z,99913.06
2023-03-13T02:51:34.023Z,99919.09
2023-03-13T02:54:13.442Z,99924.58
2023-03-13T02:56:46.422Z,99927.48
2023-03-13T02:59:17.213Z,99923.09
2023-03-13T03:01:47.815Z,99923.63
2023-03-13T03:04:17.553Z,99922.30
2023-03-13T03:06:47.421Z,99913.77
2023-03-13T03:09:17.267Z,99892.45
2023-03-13T03:11:47.450Z,99905.10
2023-03-13T03:14:18.921Z,99919.46
2023-03-13T03:16:49.429Z,99918.19
2023-03-13T03:19:19.214Z,99928.55
2023-03-13T03:21:49.589Z,99928.55
2023-03-13T03:24:20.739Z,99932.81
2023-03-13T03:26:50.510Z,99917.11
2023-03-13T03:29:21.990Z,99916.52
2023-03-13T03:31:53.370Z,99917.47
2023-03-13T03:34:24.042Z,99904.67
2023-03-13T03:36:54.438Z,99911.06
2023-03-13T03:39:24.577Z,99907.87
2023-03-13T03:41:55.322Z,99895.18
2023-03-13T03:44:25.512Z,99898.41
2023-03-13T03:46:57.002Z,99897.13
2023-03-13T03:49:27.897Z,99897.13
2023-03-13T03:51:57.752Z,99897.22
2023-03-13T03:54:29.635Z,99897.31
2023-03-13T03:56:59.608Z,99899.55
2023-03-13T03:59:29.934Z,99898.66
2023-03-13T04:02:01.565Z,99891.23
2023-03-13T04:04:32.878Z,99886.30
2023-03-13T04:07:13.072Z,99881.91
2023-03-13T04:09:43.228Z,99886.24
2023-03-13T04:12:14.702Z,99886.08
2023-03-13T04:14:46.511Z,99872.79
2023-03-13T04:17:17.469Z,99872.11
2023-03-13T04:19:48.652Z,99865.30
2023-03-13T04:22:18.576Z,99873.36
2023-03-13T04:24:50.331Z,99866.71
2023-03-13T04:27:21.098Z,99866.71
2023-03-13T04:29:52.162Z,99876.81
2023-03-13T04:32:23.730Z,99860.04
2023-03-13T04:35:08.588Z,99863.55
2023-03-13T04:37:49.602Z,99868.32
2023-03-13T04:40:23.717Z,99845.91
2023-03-13T04:43:04.353Z,99821.98
2023-03-13T04:45:35.976Z,99820.00
2023-03-13T04:48:07.741Z,99820.61
2023-03-13T04:50:44.685Z,99820.61
2023-03-13T04:53:19.222Z,99813.19
2023-03-13T04:55:51.830Z,99806.84
2023-03-13T04:58:40.007Z,99808.25
2023-03-13T05:01:17.339Z,99802.16
2023-03-13T05:03:55.112Z,99796.69
2023-03-13T05:06:29.158Z,99802.91
2023-03-13T05:09:00.930Z,99794.86
2023-03-13T05:11:42.281Z,99794.79
2023-03-13T05:14:22.407Z,99794.28
2023-03-13T05:17:10.822Z,99786.03
2023-03-13T05:19:51.144Z,99784.45
2023-03-13T05:22:40.652Z,99784.45
2023-03-13T05:25:27.831Z,99781.56
2023-03-13T05:27:59.693Z,99793.78
2023-03-13T05:30:46.622Z,99775.82
2023-03-13T05:33:21.065Z,99787.72
2023-03-13T05:36:01.094Z,99785.66
2023-03-13T05:38:35.651Z,99779.87
2023-03-13T05:41:19.142Z,99789.73
2023-03-13T05:43:56.612Z,99786.53
2023-03-13T05:46:37.186Z,99786.64
2023-03-13T05:49:24.385Z,99781.60
2023-03-13T05:52:05.084Z,99789.81
2023-03-13T05:54:36.551Z,99786.39
2023-03-13T05:57:26.561Z,99780.05
2023-03-13T05:59:58.068Z,99780.05
2023-03-13T06:02:47.408Z,99789.09
2023-03-13T06:05:19.183Z,99792.05
2023-03-13T06:07:51.554Z,99782.97
2023-03-13T06:10:22.142Z,99788.55
2023-03-13T06:12:57.974Z,99782.67
2023-03-13T06:15:30.694Z,99778.08
2023-03-13T06:18:10.620Z,99783.74
2023-03-13T06:20:42.543Z,99783.89
2023-03-13T06:23:12.301Z,99783.89
2023-03-13T06:25:42.133Z,99786.62
2023-03-13T06:28:12.229Z,99783.34
2023-03-13T06:30:42.037Z,99765.37
2023-03-13T06:33:12.746Z,99755.06
2023-03-13T06:35:55.753Z,99775.00
2023-03-13T06:38:15.497Z,99768.53
2023-03-13T06:40:46.990Z,99765.50
2023-03-13T06:43:17.163Z,99755.41
2023-03-13T06:45:47.058Z,99767.13
2023-03-13T06:48:19.120Z,99754.33
2023-03-13T06:50:48.927Z,99754.33
2023-03-13T06:53:21.559Z,99761.69
2023-03-13T06:55:51.370Z,99752.70
2023-03-13T06:58:32.125Z,99756.67
2023-03-13T07:00:53.063Z,99769.02
2023-03-13T07:03:23.421Z,99752.64
2023-03-13T07:05:59.836Z,99756.78
2023-03-13T07:08:29.979Z,99753.88
2023-03-13T07:11:03.002Z,99756.13
2023-03-13T07:13:33.249Z,99760.57
2023-03-13T07:16:08.883Z,99749.54
2023-03-13T07:18:42.147Z,99756.39
2023-03-13T07:21:12.797Z,99749.95
2023-03-13T07:23:42.665Z,99751.28
2023-03-13T07:26:15.968Z,99739.81
2023-03-13T07:28:46.149Z,99755.81
2023-03-13T07:31:21.519Z,99755.81
2023-03-13T07:33:55.978Z,99745.89
2023-03-13T07:36:26.004Z,99745.09
2023-03-13T07:38:55.743Z,99747.72
2023-03-13T07:41:28.706Z,99744.95
2023-03-13T07:43:58.468Z,99752.66
2023-03-13T07:46:28.028Z,99752.66
2023-03-13T07:48:58.225Z,99749.70
2023-03-13T07:51:42.421Z,99751.45
2023-03-13T07:54:00.210Z,99751.70
2023-03-13T07:56:30.061Z,99749.74
2023-03-13T07:58:59.824Z,99757.53
2023-03-13T08:01:31.118Z,99750.15
2023-03-13T08:04:05.585Z,99763.78
2023-03-13T08:06:39.826Z,99752.89
2023-03-13T08:09:11.331Z,99759.05
2023-03-13T08:11:42.428Z,99754.86
2023-03-13T08:14:14.324Z,99761.80
2023-03-13T08:16:44.237Z,99769.12
2023-03-13T08:19:14.005Z,99761.16
2023-03-13T08:21:43.869Z,99751.80
2023-03-13T08:24:15.235Z,99759.47
2023-03-13T08:26:45.129Z,99752.66
2023-03-13T08:29:16.237Z,99758.62
2023-03-13T08:31:48.990Z,99755.47
2023-03-13T08:34:20.726Z,99747.29
2023-03-13T08:36:52.712Z,99747.98
2023-03-13T08:39:22.729Z,99743.93
2023-03-13T08:41:52.561Z,99751.27
2023-03-13T08:44:22.089Z,99743.17
2023-03-13T08:46:52.328Z,99749.94
2023-03-13T08:49:22.141Z,99738.38
2023-03-13T08:51:51.964Z,99740.26
2023-03-13T08:54:21.815Z,99742.99
2023-03-13T08:56:51.671Z,99728.13
2023-03-13T08:59:21.423Z,99725.08
2023-03-13T09:01:51.205Z,99733.53
2023-03-13T09:04:21.403Z,99738.15
2023-03-13T09:06:51.589Z,99738.15
2023-03-13T09:09:22.827Z,99762.63
2023-03-13T09:11:52.973Z,99753.33
2023-03-13T09:14:22.627Z,99736.59
2023-03-13T09:16:52.382Z,99730.32
2023-03-13T09:19:22.068Z,99712.30
2023-03-13T09:21:51.892Z,99709.32
2023-03-13T09:24:21.550Z,99707.75
2023-03-13T09:27:00.617Z,99690.00
2023-03-13T09:29:23.050Z,99685.54
2023-03-13T09:31:52.796Z,99680.87
2023-03-13T09:34:24.385Z,99670.48
2023-03-13T09:36:54.146Z,99670.48
2023-03-13T09:39:24.209Z,99679.16
2023-03-13T09:41:57.206Z,99667.02
2023-03-13T09:44:38.652Z,99667.88
2023-03-13T09:47:29.554Z,99648.28
2023-03-13T09:50:02.450Z,99660.74
2023-03-13T09:52:41.635Z,99655.33
2023-03-13T09:55:17.203Z,99651.02
2023-03-13T09:57:57.234Z,99651.30
2023-03-13T10:00:32.250Z,99631.47
2023-03-13T10:03:13.818Z,99613.64
2023-03-13T10:05:52.884Z,99613.64
2023-03-13T10:08:28.551Z,99644.82
2023-03-13T10:11:25.650Z,99640.42
2023-03-13T10:14:16.010Z,99646.50
2023-03-13T10:16:57.515Z,99628.25
2023-03-13T10:19:37.276Z,99642.34
2023-03-13T10:22:22.564Z,99640.08
2023-03-13T10:25:01.304Z,99640.03
2023-03-13T10:27:31.169Z,99629.63
2023-03-13T10:30:00.877Z,99626.72
2023-03-13T10:32:30.655Z,99616.98
2023-03-13T10:35:03.334Z,99627.94
2023-03-13T10:37:36.156Z,99620.31
2023-03-13T10:40:23.518Z,99616.33
2023-03-13T10:42:55.325Z,99625.08
2023-03-13T10:45:25.613Z,99615.70
2023-03-13T10:47:57.519Z,99606.09
2023-03-13T10:50:29.367Z,99593.75
2023-03-13T10:52:59.457Z,99597.87
2023-03-13T10:55:29.267Z,99585.47
2023-03-13T10:58:02.294Z,99597.31
2023-03-13T11:00:41.073Z,99588.24
2023-03-13T11:03:22.412Z,99587.75
2023-03-13T11:05:58.027Z,99571.34
2023-03-13T11:08:30.546Z,99563.77
2023-03-13T11:11:02.997Z,99556.58
2023-03-13T11:13:44.125Z,99556.58
2023-03-13T11:16:30.412Z,99561.13
2023-03-13T11:19:26.939Z,99566.37
2023-03-13T11:22:17.288Z,99560.77
2023-03-13T11:25:11.854Z,99558.96
2023-03-13T11:27:53.430Z,99570.50
2023-03-13T11:30:42.396Z,99571.77
2023-03-13T11:33:16.818Z,99555.47
2023-03-13T11:36:01.815Z,99542.81
2023-03-13T11:38:46.160Z,99553.61
2023-03-13T11:44:17.957Z,99520.93
2023-03-13T11:47:17.827Z,99535.78
2023-03-13T11:49:50.613Z,99564.58
2023-03-13T11:52:23.333Z,99515.17
2023-03-13T11:55:04.566Z,99509.42
2023-03-13T11:57:39.907Z,99522.86
2023-03-13T12:00:34.188Z,99529.80
2023-03-13T12:03:23.204Z,99513.27
2023-03-13T12:05:59.368Z,99499.28
2023-03-13T12:08:29.577Z,99484.94
2023-03-13T12:11:08.151Z,99494.88
2023-03-13T12:13:40.668Z,99499.19
2023-03-13T12:16:21.917Z,99485.20
2023-03-13T12:18:54.048Z,99486.94
2023-03-13T12:21:29.555Z,99488.42
2023-03-13T12:24:14.345Z,99485.92
2023-03-13T12:26:47.116Z,99483.78
2023-03-13T12:29:26.649Z,99479.31
2023-03-13T12:32:14.299Z,99480.88
2023-03-13T12:34:49.725Z,99476.20
2023-03-13T12:37:38.597Z,99468.44
2023-03-13T12:40:36.766Z,99472.02
2023-03-13T12:43:25.549Z,99473.30
2023-03-13T12:46:04.240Z,99446.22
2023-03-13T12:48:45.891Z,99446.22
2023-03-13T12:51:34.970Z,99443.67
2023-03-13T12:54:24.077Z,99431.26
2023-03-13T12:57:11.866Z,99431.26
2023-03-13T12:59:45.042Z,99427.95
2023-03-13T13:02:24.538Z,99433.67
2023-03-13T13:04:56.814Z,99425.81
2023-03-13T13:07:40.303Z,99429.76
2023-03-13T13:10:16.832Z,99419.23
2023-03-13T13:12:50.504Z,99399.35
2023-03-13T13:15:30.746Z,99406.41
2023-03-13T13:18:26.076Z,99407.53
2023-03-13T13:21:07.669Z,99411.69
2023-03-13T13:23:44.258Z,99395.11
2023-03-13T13:26:33.635Z,99381.44
2023-03-13T13:29:18.325Z,99396.76
2023-03-13T13:31:55.293Z,99386.29
2023-03-13T13:34:36.378Z,99382.47
2023-03-13T13:37:14.884Z,99386.36
2023-03-13T13:39:53.498Z,99394.13
2023-03-13T13:42:36.669Z,99386.92
2023-03-13T13:45:20.342Z,99396.98
2023-03-13T13:47:51.679Z,99390.27
2023-03-13T13:50:26.465Z,99390.27
2023-03-13T13:53:15.486Z,99392.75
2023-03-13T13:55:46.383Z,99384.63
2023-03-13T13:58:21.877Z,99384.98
2023-03-13T14:01:02.727Z,99387.42
2023-03-13T14:03:35.898Z,99394.59
2023-03-13T14:06:25.842Z,99373.58
2023-03-13T14:08:58.751Z,99359.47
2023-03-13T14:11:37.313Z,99366.16
2023-03-13T14:14:22.246Z,99353.99
2023-03-13T14:16:58.895Z,99353.73
2023-03-13T14:19:33.673Z,99328.83
2023-03-13T14:22:08.899Z,99340.68
2023-03-13T14:24:39.084Z,99340.95
2023-03-13T14:27:17.269Z,99340.95
2023-03-13T14:30:09.208Z,99335.83
2023-03-13T14:32:40.409Z,99327.07
2023-03-13T14:35:12.544Z,99339.05
2023-03-13T14:37:47.636Z,99313.60
2023-03-13T14:40:28.354Z,99325.95
2023-03-13T14:43:02.535Z,99317.00
2023-03-13T14:45:39.896Z,99310.06
2023-03-13T14:48:35.020Z,99306.92
2023-03-13T14:51:15.697Z,99321.67
2023-03-13T14:53:43.994Z,99306.74
2023-03-13T14:56:19.307Z,99298.94
2023-03-13T14:58:49.506Z,99275.69
2023-03-13T15:01:29.363Z,99275.69
2023-03-13T15:04:00.646Z,99290.84
2023-03-13T15:06:30.816Z,99290.48
2023-03-13T15:09:22.019Z,99290.48
2023-03-13T15:12:02.504Z,99277.37
2023-03-13T15:14:43.762Z,99277.37
2023-03-13T15:17:18.851Z,99281.05
2023-03-13T15:19:54.130Z,99282.13
2023-03-13T15:22:33.893Z,99278.06
2023-03-13T15:25:07.496Z,99273.91
2023-03-13T15:27:36.930Z,99263.27
2023-03-13T15:30:08.639Z,99268.12
2023-03-13T15:32:42.631Z,99268.72
2023-03-13T15:35:32.737Z,99260.41
2023-03-13T15:38:03.461Z,99257.61
2023-03-13T15:40:33.065Z,99244.98
2023-03-13T15:43:02.832Z,99244.98
2023-03-13T15:45:32.772Z,99248.95
2023-03-13T15:48:03.037Z,99242.30
2023-03-13T15:50:32.671Z,99234.02
2023-03-13T15:53:02.491Z,99231.00
2023-03-13T15:55:32.541Z,99230.77
2023-03-13T15:58:02.280Z,99225.39
2023-03-13T16:00:31.974Z,99220.27
2023-03-13T16:03:01.501Z,99201.03
2023-03-13T16:05:31.295Z,99197.23
2023-03-13T16:08:01.300Z,99201.07
2023-03-13T16:10:33.105Z,99193.21
2023-03-13T16:13:03.528Z,99184.30
2023-03-13T16:15:33.045Z,99186.44
2023-03-13T16:18:03.409Z,99176.03
2023-03-13T16:20:35.132Z,99169.77
2023-03-13T16:23:04.971Z,99174.36
2023-03-13T16:25:35.163Z,99165.08
2023-03-13T16:28:08.812Z,99159.34
2023-03-13T16:30:40.738Z,99160.06
2023-03-13T16:33:11.538Z,99160.06
2023-03-13T16:35:41.478Z,99150.25
2023-03-13T16:38:12.603Z,99152.52
2023-03-13T16:40:42.134Z,99154.65
2023-03-13T16:43:13.414Z,99149.70
2023-03-13T16:45:43.911Z,99142.80
2023-03-13T16:48:16.721Z,99149.88
2023-03-13T16:50:46.574Z,99146.97
2023-03-13T16:53:16.728Z,99143.57
2023-03-13T16:55:46.742Z,99155.48
2023-03-13T16:58:16.429Z,99144.83
2023-03-13T17:00:59.339Z,99148.28
2023-03-13T17:03:17.710Z,99142.88
2023-03-13T17:05:47.811Z,99142.32
2023-03-13T17:08:17.593Z,99145.19
2023-03-13T17:13:18.777Z,99167.80
2023-03-13T17:15:48.618Z,99167.80
2023-03-13T17:18:18.468Z,99163.42
2023-03-13T17:20:48.808Z,99153.56
2023-03-13T17:23:18.895Z,99143.45
2023-03-13T17:25:48.914Z,99147.30
2023-03-13T17:28:18.415Z,99148.77
2023-03-13T17:30:48.306Z,99149.56
2023-03-13T17:33:18.162Z,99157.33
2023-03-13T17:35:47.972Z,99150.72
2023-03-13T17:38:17.859Z,99153.19
2023-03-13T17:40:47.844Z,99153.12
2023-03-13T17:43:17.664Z,99146.06
2023-03-13T17:45:47.479Z,99146.58
2023-03-13T17:48:17.525Z,99139.23
2023-03-13T17:50:47.292Z,99147.19
2023-03-13T17:53:17.248Z,99155.45
2023-03-13T17:55:47.463Z,99156.28
2023-03-13T17:58:17.235Z,99148.02
2023-03-13T18:00:47.599Z,99140.33
2023-03-13T18:03:17.683Z,99144.19
2023-03-13T18:05:47.444Z,99140.64
2023-03-13T18:08:16.963Z,99134.02
2023-03-13T18:10:46.824Z,99140.88
2023-03-13T18:13:16.573Z,99145.55
2023-03-13T18:15:46.342Z,99140.06
2023-03-13T18:18:18.861Z,99140.06
2023-03-13T18:20:48.650Z,99137.61
2023-03-13T18:23:18.797Z,99137.05
2023-03-13T18:25:48.630Z,99137.31
2023-03-13T18:28:18.244Z,99134.05
2023-03-13T18:30:48.545Z,99112.30
2023-03-13T18:33:18.362Z,99120.84
2023-03-13T18:35:48.165Z,99121.99
2023-03-13T18:38:19.120Z,99111.54
2023-03-13T18:40:48.894Z,99114.25
2023-03-13T18:43:18.649Z,99107.13
2023-03-13T18:45:48.420Z,99104.97
2023-03-13T18:48:18.171Z,99104.69
2023-03-13T18:50:48.281Z,99109.63
2023-03-13T18:53:18.089Z,99111.52
2023-03-13T18:55:47.907Z,99103.23
2023-03-13T18:58:17.717Z,99105.72
2023-03-13T19:00:47.987Z,99114.80
2023-03-13T19:03:19.437Z,99108.50
2023-03-13T19:05:49.196Z,99096.15
2023-03-13T19:08:19.171Z,99108.50
2023-03-13T19:10:49.024Z,99113.19
2023-03-13T19:13:18.999Z,99127.98
2023-03-13T19:15:48.788Z,99124.16
2023-03-13T19:18:18.788Z,99107.70
2023-03-13T19:20:49.829Z,99101.97
2023-03-13T19:23:19.938Z,99101.97
2023-03-13T19:25:49.692Z,99109.37
2023-03-13T19:28:19.570Z,99111.84
2023-03-13T19:30:49.312Z,99113.23
2023-03-13T19:33:19.846Z,99107.19
2023-03-13T19:35:49.619Z,99103.34
2023-03-13T19:38:19.130Z,99101.13
2023-03-13T19:40:48.910Z,99104.70
2023-03-13T19:43:18.485Z,99108.27
2023-03-13T19:45:48.656Z,99091.54
2023-03-13T19:48:18.217Z,99080.81
2023-03-13T19:50:48.304Z,99078.37
2023-03-13T19:53:18.153Z,99076.37
2023-03-13T19:55:47.977Z,99078.57
2023-03-13T19:58:17.831Z,99064.86
2023-03-13T20:00:47.578Z,99063.46
2023-03-13T20:03:17.353Z,99072.44
2023-03-13T20:05:47.103Z,99075.42
2023-03-13T20:08:16.897Z,99078.41
2023-03-13T20:10:46.995Z,99082.55
2023-03-13T20:13:16.776Z,99089.32
2023-03-13T20:15:46.656Z,99099.64
2023-03-13T20:18:16.147Z,99105.66
2023-03-13T20:20:46.194Z,99108.45
2023-03-13T20:23:15.948Z,99098.91
2023-03-13T20:25:46.029Z,99089.12
2023-03-13T20:28:16.147Z,99087.44
2023-03-13T20:30:47.615Z,99076.24
2023-03-13T20:33:17.779Z,99082.58
2023-03-13T20:35:47.336Z,99088.54
2023-03-13T20:38:17.105Z,99077.61
2023-03-13T20:40:49.920Z,99077.64
2023-03-13T20:43:20.484Z,99070.02
2023-03-13T20:45:50.351Z,99071.13
2023-03-13T20:48:20.633Z,99079.37
2023-03-13T20:50:55.828Z,99074.94
2023-03-13T20:53:26.717Z,99070.55
2023-03-13T20:55:56.500Z,99085.02
2023-03-13T20:58:26.334Z,99090.83
2023-03-13T21:01:01.529Z,99079.56
2023-03-13T21:03:35.861Z,99082.06
2023-03-13T21:06:16.396Z,99085.90
2023-03-13T21:08:46.996Z,99079.37
2023-03-13T21:11:19.640Z,99079.09
2023-03-13T21:13:50.298Z,99077.42
2023-03-13T21:16:20.240Z,99082.14
2023-03-13T21:18:50.068Z,99091.12
2023-03-13T21:21:22.293Z,99086.14
2023-03-13T21:23:53.093Z,99087.81
2023-03-13T21:26:22.935Z,99065.25
2023-03-13T21:28:53.017Z,99065.25
2023-03-13T21:31:23.012Z,99056.21
2023-03-13T21:33:52.847Z,99051.83
2023-03-13T21:36:23.379Z,99060.66
2023-03-13T21:38:53.270Z,99069.36
2023-03-13T21:41:23.832Z,99055.45
2023-03-13T21:43:55.311Z,99026.41
2023-03-13T21:46:25.224Z,99030.22
2023-03-13T21:48:55.197Z,99028.72
2023-03-13T21:51:24.957Z,99028.72
2023-03-13T21:53:54.679Z,99026.05
2023-03-13T21:56:24.134Z,99029.33
2023-03-13T21:58:54.162Z,99026.02
2023-03-13T22:01:24.308Z,99026.02
2023-03-13T22:03:54.197Z,99027.62
2023-03-13T22:06:24.208Z,99022.06
2023-03-13T22:08:54.053Z,99020.49
2023-03-13T22:11:23.809Z,99021.00
2023-03-13T22:13:53.718Z,99009.27
2023-03-13T22:16:25.397Z,99009.81
2023-03-13T22:18:55.866Z,99011.15
2023-03-13T22:21:25.924Z,99014.82
2023-03-13T22:23:55.820Z,99007.97
2023-03-13T22:26:25.362Z,99001.21
2023-03-13T22:28:55.266Z,98998.16
2023-03-13T22:31:25.046Z,98997.92
2023-03-13T22:33:54.732Z,98978.53
2023-03-13T22:36:24.289Z,98986.03
2023-03-13T22:38:54.116Z,98976.92
2023-03-13T22:41:23.909Z,98989.13
2023-03-13T22:43:53.879Z,98987.17
2023-03-13T22:46:23.761Z,98982.80
2023-03-13T22:48:53.563Z,98986.39
2023-03-13T22:51:23.344Z,98995.50
2023-03-13T22:53:53.091Z,99005.55
2023-03-13T22:56:24.546Z,99008.84
2023-03-13T22:58:54.643Z,99010.92
2023-03-13T23:01:24.696Z,99005.83
2023-03-13T23:03:54.290Z,99005.77
2023-03-13T23:06:25.598Z,99012.06
2023-03-13T23:08:55.526Z,99011.74
2023-03-13T23:11:25.328Z,99014.81
2023-03-13T23:13:55.274Z,99011.25
2023-03-13T23:16:24.830Z,99001.91
2023-03-13T23:18:54.598Z,98992.81
2023-03-13T23:21:24.068Z,98987.76
2023-03-13T23:23:55.177Z,98981.11
2023-03-13T23:26:24.702Z,98985.42
2023-03-13T23:28:54.496Z,98977.77
2023-03-13T23:31:24.405Z,98963.27
2023-03-13T23:33:54.801Z,98965.82
2023-03-13T23:36:24.574Z,98965.82
2023-03-13T23:38:56.873Z,98964.84
2023-03-13T23:41:26.718Z,98956.61
2023-03-13T23:43:56.526Z,98956.61
2023-03-13T23:46:26.950Z,98951.45
2023-03-13T23:48:58.317Z,98949.13
2023-03-13T23:51:28.141Z,98962.35
2023-03-13T23:53:57.910Z,98962.35
2023-03-13T23:56:29.553Z,98964.63
2023-03-13T23:58:59.713Z,98974.92
